sensor_id;sensor_type;location;lat;lon;timestamp;P1;durP1;ratioP1;P2;durP2;ratioP2
17520;SDS011;8878;-33.370;-70.552;2022-11-18T00:02:05;1.10;;;0.88;;
17520;SDS011;8878;-33.370;-70.552;2022-11-18T00:04:35;2.33;;;1.63;;
17520;SDS011;8878;-33.370;-70.552;2022-11-18T00:07:04;1.00;;;0.88;;
17520;SDS011;8878;-33.370;-70.552;2022-11-18T00:09:34;3.30;;;1.25;;
17520;SDS011;8878;-33.370;-70.552;2022-11-18T00:12:04;2.63;;;0.93;;
17520;SDS011;8878;-33.370;-70.552;2022-11-18T00:14:52;2.20;;;0.63;;
17520;SDS011;8878;-33.370;-70.552;2022-11-18T00:17:21;1.00;;;0.98;;
17520;SDS011;8878;-33.370;-70.552;2022-11-18T00:19:51;2.50;;;0.98;;
17520;SDS011;8878;-33.370;-70.552;2022-11-18T00:22:20;4.15;;;0.90;;
17520;SDS011;8878;-33.370;-70.552;2022-11-18T00:24:49;0.68;;;0.68;;
17520;SDS011;8878;-33.370;-70.552;2022-11-18T00:27:20;0.80;;;0.80;;
17520;SDS011;8878;-33.370;-70.552;2022-11-18T00:29:53;2.05;;;0.55;;
17520;SDS011;8878;-33.370;-70.552;2022-11-18T00:32:22;0.77;;;0.77;;
17520;SDS011;8878;-33.370;-70.552;2022-11-18T00:34:51;0.73;;;0.73;;
17520;SDS011;8878;-33.370;-70.552;2022-11-18T00:37:22;1.35;;;0.98;;
17520;SDS011;8878;-33.370;-70.552;2022-11-18T00:39:53;2.30;;;1.35;;
17520;SDS011;8878;-33.370;-70.552;2022-11-18T00:42:23;5.43;;;1.08;;
17520;SDS011;8878;-33.370;-70.552;2022-11-18T00:45:10;2.58;;;1.13;;
17520;SDS011;8878;-33.370;-70.552;2022-11-18T00:47:40;1.35;;;0.90;;
17520;SDS011;8878;-33.370;-70.552;2022-11-18T00:50:09;0.75;;;0.70;;
17520;SDS011;8878;-33.370;-70.552;2022-11-18T00:52:38;1.17;;;1.08;;
17520;SDS011;8878;-33.370;-70.552;2022-11-18T00:55:08;4.97;;;1.15;;
17520;SDS011;8878;-33.370;-70.552;2022-11-18T00:57:37;1.52;;;0.85;;
17520;SDS011;8878;-33.370;-70.552;2022-11-18T01:00:07;0.75;;;0.75;;
17520;SDS011;8878;-33.370;-70.552;2022-11-18T01:02:39;1.50;;;1.25;;
17520;SDS011;8878;-33.370;-70.552;2022-11-18T01:05:09;1.15;;;1.05;;
17520;SDS011;8878;-33.370;-70.552;2022-11-18T01:07:38;1.17;;;0.90;;
17520;SDS011;8878;-33.370;-70.552;2022-11-18T01:10:08;0.85;;;0.73;;
17520;SDS011;8878;-33.370;-70.552;2022-11-18T01:12:37;2.63;;;1.05;;
17520;SDS011;8878;-33.370;-70.552;2022-11-18T01:15:25;3.50;;;1.23;;
17520;SDS011;8878;-33.370;-70.552;2022-11-18T01:17:54;1.27;;;0.90;;
17520;SDS011;8878;-33.370;-70.552;2022-11-18T01:20:24;0.70;;;0.70;;
17520;SDS011;8878;-33.370;-70.552;2022-11-18T01:22:53;4.63;;;1.13;;
17520;SDS011;8878;-33.370;-70.552;2022-11-18T01:25:24;0.88;;;0.80;;
17520;SDS011;8878;-33.370;-70.552;2022-11-18T01:27:53;2.55;;;0.90;;
17520;SDS011;8878;-33.370;-70.552;2022-11-18T01:30:23;0.80;;;0.80;;
17520;SDS011;8878;-33.370;-70.552;2022-11-18T01:32:54;1.00;;;0.80;;
17520;SDS011;8878;-33.370;-70.552;2022-11-18T01:35:24;1.20;;;0.70;;
17520;SDS011;8878;-33.370;-70.552;2022-11-18T01:37:54;1.95;;;1.30;;
17520;SDS011;8878;-33.370;-70.552;2022-11-18T01:40:25;2.45;;;0.93;;
17520;SDS011;8878;-33.370;-70.552;2022-11-18T01:42:56;1.08;;;0.40;;
17520;SDS011;8878;-33.370;-70.552;2022-11-18T01:45:29;2.03;;;1.13;;
17520;SDS011;8878;-33.370;-70.552;2022-11-18T01:48:03;1.20;;;0.70;;
17520;SDS011;8878;-33.370;-70.552;2022-11-18T01:50:36;0.80;;;0.70;;
17520;SDS011;8878;-33.370;-70.552;2022-11-18T01:53:10;0.70;;;0.60;;
17520;SDS011;8878;-33.370;-70.552;2022-11-18T01:55:44;5.65;;;1.05;;
17520;SDS011;8878;-33.370;-70.552;2022-11-18T01:58:17;1.13;;;1.02;;
17520;SDS011;8878;-33.370;-70.552;2022-11-18T02:00:54;4.13;;;0.65;;
17520;SDS011;8878;-33.370;-70.552;2022-11-18T02:03:24;1.17;;;0.50;;
17520;SDS011;8878;-33.370;-70.552;2022-11-18T02:05:54;1.58;;;0.98;;
17520;SDS011;8878;-33.370;-70.552;2022-11-18T02:08:26;5.00;;;1.08;;
17520;SDS011;8878;-33.370;-70.552;2022-11-18T02:10:57;1.65;;;1.02;;
17520;SDS011;8878;-33.370;-70.552;2022-11-18T02:13:26;3.80;;;1.17;;
17520;SDS011;8878;-33.370;-70.552;2022-11-18T02:15:59;1.83;;;0.57;;
17520;SDS011;8878;-33.370;-70.552;2022-11-18T02:18:35;2.50;;;1.15;;
17520;SDS011;8878;-33.370;-70.552;2022-11-18T02:21:18;0.70;;;0.70;;
17520;SDS011;8878;-33.370;-70.552;2022-11-18T02:26:58;2.10;;;0.52;;
17520;SDS011;8878;-33.370;-70.552;2022-11-18T02:29:43;1.15;;;0.85;;
17520;SDS011;8878;-33.370;-70.552;2022-11-18T02:32:23;1.48;;;1.38;;
17520;SDS011;8878;-33.370;-70.552;2022-11-18T02:34:58;4.38;;;1.13;;
17520;SDS011;8878;-33.370;-70.552;2022-11-18T02:37:35;0.88;;;0.80;;
17520;SDS011;8878;-33.370;-70.552;2022-11-18T02:40:11;2.47;;;1.17;;
17520;SDS011;8878;-33.370;-70.552;2022-11-18T02:42:43;1.30;;;0.90;;
17520;SDS011;8878;-33.370;-70.552;2022-11-18T02:45:20;1.95;;;1.10;;
17520;SDS011;8878;-33.370;-70.552;2022-11-18T02:47:51;1.85;;;0.75;;
17520;SDS011;8878;-33.370;-70.552;2022-11-18T02:50:24;1.35;;;1.25;;
17520;SDS011;8878;-33.370;-70.552;2022-11-18T02:52:57;0.90;;;0.85;;
17520;SDS011;8878;-33.370;-70.552;2022-11-18T02:55:30;1.17;;;0.90;;
17520;SDS011;8878;-33.370;-70.552;2022-11-18T02:58:02;3.17;;;1.00;;
17520;SDS011;8878;-33.370;-70.552;2022-11-18T03:00:35;3.25;;;1.45;;
17520;SDS011;8878;-33.370;-70.552;2022-11-18T03:03:20;1.92;;;0.93;;
17520;SDS011;8878;-33.370;-70.552;2022-11-18T03:05:54;2.13;;;0.77;;
17520;SDS011;8878;-33.370;-70.552;2022-11-18T03:08:35;0.98;;;0.70;;
17520;SDS011;8878;-33.370;-70.552;2022-11-18T03:11:09;3.28;;;1.30;;
17520;SDS011;8878;-33.370;-70.552;2022-11-18T03:13:46;1.60;;;0.80;;
17520;SDS011;8878;-33.370;-70.552;2022-11-18T03:16:28;2.25;;;1.13;;
17520;SDS011;8878;-33.370;-70.552;2022-11-18T03:19:04;1.63;;;1.20;;
17520;SDS011;8878;-33.370;-70.552;2022-11-18T03:21:41;1.80;;;1.00;;
17520;SDS011;8878;-33.370;-70.552;2022-11-18T03:24:16;2.13;;;1.20;;
17520;SDS011;8878;-33.370;-70.552;2022-11-18T03:26:53;0.63;;;0.52;;
17520;SDS011;8878;-33.370;-70.552;2022-11-18T03:29:33;4.75;;;1.02;;
17520;SDS011;8878;-33.370;-70.552;2022-11-18T03:32:08;1.88;;;1.13;;
17520;SDS011;8878;-33.370;-70.552;2022-11-18T03:34:42;2.72;;;0.90;;
17520;SDS011;8878;-33.370;-70.552;2022-11-18T03:37:15;0.90;;;0.90;;
17520;SDS011;8878;-33.370;-70.552;2022-11-18T03:39:49;3.95;;;1.30;;
17520;SDS011;8878;-33.370;-70.552;2022-11-18T03:42:23;2.90;;;1.15;;
17520;SDS011;8878;-33.370;-70.552;2022-11-18T03:44:57;2.65;;;1.70;;
17520;SDS011;8878;-33.370;-70.552;2022-11-18T03:47:33;1.90;;;1.10;;
17520;SDS011;8878;-33.370;-70.552;2022-11-18T03:50:08;4.05;;;1.10;;
17520;SDS011;8878;-33.370;-70.552;2022-11-18T03:52:42;2.25;;;1.02;;
17520;SDS011;8878;-33.370;-70.552;2022-11-18T03:55:13;1.48;;;0.88;;
17520;SDS011;8878;-33.370;-70.552;2022-11-18T03:57:47;3.38;;;1.10;;
17520;SDS011;8878;-33.370;-70.552;2022-11-18T04:00:25;1.70;;;1.30;;
17520;SDS011;8878;-33.370;-70.552;2022-11-18T04:03:01;1.80;;;0.98;;
17520;SDS011;8878;-33.370;-70.552;2022-11-18T04:05:32;2.70;;;1.23;;
17520;SDS011;8878;-33.370;-70.552;2022-11-18T04:08:05;1.90;;;1.38;;
17520;SDS011;8878;-33.370;-70.552;2022-11-18T04:10:38;2.08;;;1.00;;
17520;SDS011;8878;-33.370;-70.552;2022-11-18T04:13:14;0.88;;;0.85;;
17520;SDS011;8878;-33.370;-70.552;2022-11-18T04:15:47;1.60;;;1.08;;
17520;SDS011;8878;-33.370;-70.552;2022-11-18T04:18:19;2.40;;;1.00;;
17520;SDS011;8878;-33.370;-70.552;2022-11-18T04:20:49;1.08;;;0.98;;
17520;SDS011;8878;-33.370;-70.552;2022-11-18T04:23:18;3.22;;;1.48;;
17520;SDS011;8878;-33.370;-70.552;2022-11-18T04:25:48;1.25;;;0.93;;
17520;SDS011;8878;-33.370;-70.552;2022-11-18T04:28:17;0.73;;;0.68;;
17520;SDS011;8878;-33.370;-70.552;2022-11-18T04:30:47;7.95;;;1.05;;
17520;SDS011;8878;-33.370;-70.552;2022-11-18T04:33:16;1.20;;;0.88;;
17520;SDS011;8878;-33.370;-70.552;2022-11-18T04:35:47;4.00;;;1.02;;
17520;SDS011;8878;-33.370;-70.552;2022-11-18T04:38:17;2.35;;;0.60;;
17520;SDS011;8878;-33.370;-70.552;2022-11-18T04:40:46;0.85;;;0.85;;
17520;SDS011;8878;-33.370;-70.552;2022-11-18T04:43:16;3.20;;;0.93;;
17520;SDS011;8878;-33.370;-70.552;2022-11-18T04:45:46;1.42;;;1.13;;
17520;SDS011;8878;-33.370;-70.552;2022-11-18T04:48:15;1.15;;;1.02;;
17520;SDS011;8878;-33.370;-70.552;2022-11-18T04:50:46;1.08;;;0.90;;
17520;SDS011;8878;-33.370;-70.552;2022-11-18T04:53:16;4.95;;;1.35;;
17520;SDS011;8878;-33.370;-70.552;2022-11-18T04:55:45;3.83;;;1.27;;
17520;SDS011;8878;-33.370;-70.552;2022-11-18T04:58:14;1.08;;;0.73;;
17520;SDS011;8878;-33.370;-70.552;2022-11-18T05:00:44;0.90;;;0.55;;
17520;SDS011;8878;-33.370;-70.552;2022-11-18T05:03:13;4.15;;;1.17;;
17520;SDS011;8878;-33.370;-70.552;2022-11-18T05:05:43;3.40;;;1.35;;
17520;SDS011;8878;-33.370;-70.552;2022-11-18T05:08:14;2.42;;;1.48;;
17520;SDS011;8878;-33.370;-70.552;2022-11-18T05:10:43;0.52;;;0.45;;
17520;SDS011;8878;-33.370;-70.552;2022-11-18T05:13:13;1.95;;;0.98;;
17520;SDS011;8878;-33.370;-70.552;2022-11-18T05:15:40;4.05;;;1.38;;
17520;SDS011;8878;-33.370;-70.552;2022-11-18T05:18:10;2.47;;;1.23;;
17520;SDS011;8878;-33.370;-70.552;2022-11-18T05:20:39;7.93;;;1.23;;
17520;SDS011;8878;-33.370;-70.552;2022-11-18T05:23:09;1.77;;;0.73;;
17520;SDS011;8878;-33.370;-70.552;2022-11-18T05:25:40;1.05;;;0.93;;
17520;SDS011;8878;-33.370;-70.552;2022-11-18T05:28:10;2.17;;;1.35;;
17520;SDS011;8878;-33.370;-70.552;2022-11-18T05:30:39;1.85;;;0.90;;
17520;SDS011;8878;-33.370;-70.552;2022-11-18T05:33:08;2.08;;;1.20;;
17520;SDS011;8878;-33.370;-70.552;2022-11-18T05:35:38;1.85;;;0.90;;
17520;SDS011;8878;-33.370;-70.552;2022-11-18T05:38:07;1.60;;;1.50;;
17520;SDS011;8878;-33.370;-70.552;2022-11-18T05:40:36;2.42;;;1.92;;
17520;SDS011;8878;-33.370;-70.552;2022-11-18T05:43:07;4.13;;;1.48;;
17520;SDS011;8878;-33.370;-70.552;2022-11-18T05:45:38;1.25;;;1.02;;
17520;SDS011;8878;-33.370;-70.552;2022-11-18T05:48:08;2.38;;;0.88;;
17520;SDS011;8878;-33.370;-70.552;2022-11-18T05:50:37;1.13;;;1.02;;
17520;SDS011;8878;-33.370;-70.552;2022-11-18T05:53:06;1.85;;;0.85;;
17520;SDS011;8878;-33.370;-70.552;2022-11-18T05:55:39;1.50;;;1.20;;
17520;SDS011;8878;-33.370;-70.552;2022-11-18T05:58:14;1.60;;;1.13;;
17520;SDS011;8878;-33.370;-70.552;2022-11-18T06:00:43;1.85;;;1.17;;
17520;SDS011;8878;-33.370;-70.552;2022-11-18T06:03:15;2.03;;;1.05;;
17520;SDS011;8878;-33.370;-70.552;2022-11-18T06:05:48;1.83;;;0.73;;
17520;SDS011;8878;-33.370;-70.552;2022-11-18T06:08:21;2.25;;;1.02;;
17520;SDS011;8878;-33.370;-70.552;2022-11-18T06:10:53;3.20;;;1.23;;
17520;SDS011;8878;-33.370;-70.552;2022-11-18T06:13:24;1.50;;;1.30;;
17520;SDS011;8878;-33.370;-70.552;2022-11-18T06:15:56;2.08;;;1.20;;
17520;SDS011;8878;-33.370;-70.552;2022-11-18T06:18:27;1.15;;;0.73;;
17520;SDS011;8878;-33.370;-70.552;2022-11-18T06:20:59;1.75;;;1.38;;
17520;SDS011;8878;-33.370;-70.552;2022-11-18T06:23:32;2.08;;;1.85;;
17520;SDS011;8878;-33.370;-70.552;2022-11-18T06:26:04;1.15;;;0.88;;
17520;SDS011;8878;-33.370;-70.552;2022-11-18T06:28:36;0.65;;;0.65;;
17520;SDS011;8878;-33.370;-70.552;2022-11-18T06:31:07;2.10;;;0.70;;
17520;SDS011;8878;-33.370;-70.552;2022-11-18T06:33:36;1.08;;;0.93;;
17520;SDS011;8878;-33.370;-70.552;2022-11-18T06:36:06;15.60;;;1.63;;
17520;SDS011;8878;-33.370;-70.552;2022-11-18T06:38:35;2.28;;;1.52;;
17520;SDS011;8878;-33.370;-70.552;2022-11-18T06:41:05;2.70;;;1.20;;
17520;SDS011;8878;-33.370;-70.552;2022-11-18T06:43:34;3.72;;;1.40;;
17520;SDS011;8878;-33.370;-70.552;2022-11-18T06:46:11;1.35;;;1.27;;
17520;SDS011;8878;-33.370;-70.552;2022-11-18T06:48:57;3.95;;;1.50;;
17520;SDS011;8878;-33.370;-70.552;2022-11-18T06:51:27;5.10;;;1.23;;
17520;SDS011;8878;-33.370;-70.552;2022-11-18T06:53:57;6.13;;;0.90;;
17520;SDS011;8878;-33.370;-70.552;2022-11-18T06:56:26;1.00;;;0.98;;
17520;SDS011;8878;-33.370;-70.552;2022-11-18T06:58:57;1.73;;;1.52;;
17520;SDS011;8878;-33.370;-70.552;2022-11-18T07:01:27;2.72;;;1.23;;
17520;SDS011;8878;-33.370;-70.552;2022-11-18T07:03:58;1.63;;;1.02;;
17520;SDS011;8878;-33.370;-70.552;2022-11-18T07:06:28;2.05;;;0.80;;
17520;SDS011;8878;-33.370;-70.552;2022-11-18T07:08:58;1.27;;;1.17;;
17520;SDS011;8878;-33.370;-70.552;2022-11-18T07:11:30;0.93;;;0.88;;
17520;SDS011;8878;-33.370;-70.552;2022-11-18T07:14:01;1.80;;;1.20;;
17520;SDS011;8878;-33.370;-70.552;2022-11-18T07:16:30;1.17;;;0.82;;
17520;SDS011;8878;-33.370;-70.552;2022-11-18T07:19:01;2.78;;;0.98;;
17520;SDS011;8878;-33.370;-70.552;2022-11-18T07:21:34;3.25;;;1.20;;
17520;SDS011;8878;-33.370;-70.552;2022-11-18T07:24:04;1.48;;;0.93;;
17520;SDS011;8878;-33.370;-70.552;2022-11-18T07:26:37;1.58;;;1.00;;
17520;SDS011;8878;-33.370;-70.552;2022-11-18T07:29:09;0.93;;;0.88;;
17520;SDS011;8878;-33.370;-70.552;2022-11-18T07:31:38;3.95;;;1.63;;
17520;SDS011;8878;-33.370;-70.552;2022-11-18T07:34:08;1.60;;;0.90;;
17520;SDS011;8878;-33.370;-70.552;2022-11-18T07:36:37;1.40;;;0.88;;
17520;SDS011;8878;-33.370;-70.552;2022-11-18T07:39:07;0.90;;;0.82;;
17520;SDS011;8878;-33.370;-70.552;2022-11-18T07:41:38;1.23;;;1.13;;
17520;SDS011;8878;-33.370;-70.552;2022-11-18T07:44:11;2.53;;;1.20;;
17520;SDS011;8878;-33.370;-70.552;2022-11-18T07:46:42;3.15;;;0.85;;
17520;SDS011;8878;-33.370;-70.552;2022-11-18T07:49:11;9.10;;;0.98;;
17520;SDS011;8878;-33.370;-70.552;2022-11-18T07:51:42;3.28;;;1.33;;
17520;SDS011;8878;-33.370;-70.552;2022-11-18T07:54:12;5.47;;;1.42;;
17520;SDS011;8878;-33.370;-70.552;2022-11-18T07:56:42;1.00;;;0.90;;
17520;SDS011;8878;-33.370;-70.552;2022-11-18T07:59:14;1.50;;;0.93;;
17520;SDS011;8878;-33.370;-70.552;2022-11-18T08:01:43;2.03;;;0.90;;
17520;SDS011;8878;-33.370;-70.552;2022-11-18T08:04:13;2.05;;;0.60;;
17520;SDS011;8878;-33.370;-70.552;2022-11-18T08:06:42;1.02;;;0.75;;
17520;SDS011;8878;-33.370;-70.552;2022-11-18T08:09:12;3.65;;;1.45;;
17520;SDS011;8878;-33.370;-70.552;2022-11-18T08:11:41;0.82;;;0.80;;
17520;SDS011;8878;-33.370;-70.552;2022-11-18T08:14:11;1.70;;;1.00;;
17520;SDS011;8878;-33.370;-70.552;2022-11-18T08:16:42;5.78;;;1.35;;
17520;SDS011;8878;-33.370;-70.552;2022-11-18T08:19:11;1.75;;;0.70;;
17520;SDS011;8878;-33.370;-70.552;2022-11-18T08:21:40;0.55;;;0.50;;
17520;SDS011;8878;-33.370;-70.552;2022-11-18T08:24:10;0.80;;;0.80;;
17520;SDS011;8878;-33.370;-70.552;2022-11-18T08:26:39;5.25;;;0.70;;
17520;SDS011;8878;-33.370;-70.552;2022-11-18T08:29:17;11.32;;;1.33;;
17520;SDS011;8878;-33.370;-70.552;2022-11-18T08:31:49;0.52;;;0.47;;
17520;SDS011;8878;-33.370;-70.552;2022-11-18T08:34:19;1.58;;;1.42;;
17520;SDS011;8878;-33.370;-70.552;2022-11-18T08:36:48;7.95;;;0.93;;
17520;SDS011;8878;-33.370;-70.552;2022-11-18T08:39:17;1.85;;;0.77;;
17520;SDS011;8878;-33.370;-70.552;2022-11-18T08:41:47;1.23;;;0.75;;
17520;SDS011;8878;-33.370;-70.552;2022-11-18T08:44:16;1.13;;;0.70;;
17520;SDS011;8878;-33.370;-70.552;2022-11-18T08:46:45;1.95;;;1.30;;
17520;SDS011;8878;-33.370;-70.552;2022-11-18T08:49:16;7.03;;;1.48;;
17520;SDS011;8878;-33.370;-70.552;2022-11-18T08:51:46;0.50;;;0.50;;
17520;SDS011;8878;-33.370;-70.552;2022-11-18T08:54:15;1.70;;;1.38;;
17520;SDS011;8878;-33.370;-70.552;2022-11-18T08:56:44;2.95;;;1.38;;
17520;SDS011;8878;-33.370;-70.552;2022-11-18T08:59:15;0.88;;;0.88;;
17520;SDS011;8878;-33.370;-70.552;2022-11-18T09:01:45;4.10;;;1.08;;
17520;SDS011;8878;-33.370;-70.552;2022-11-18T09:04:16;1.63;;;1.20;;
17520;SDS011;8878;-33.370;-70.552;2022-11-18T09:06:45;4.55;;;1.63;;
17520;SDS011;8878;-33.370;-70.552;2022-11-18T09:09:15;3.45;;;0.70;;
17520;SDS011;8878;-33.370;-70.552;2022-11-18T09:11:44;3.67;;;1.42;;
17520;SDS011;8878;-33.370;-70.552;2022-11-18T09:14:14;6.20;;;1.48;;
17520;SDS011;8878;-33.370;-70.552;2022-11-18T09:16:43;8.27;;;1.80;;
17520;SDS011;8878;-33.370;-70.552;2022-11-18T09:19:13;4.10;;;1.83;;
17520;SDS011;8878;-33.370;-70.552;2022-11-18T09:21:45;2.08;;;1.90;;
17520;SDS011;8878;-33.370;-70.552;2022-11-18T09:24:15;2.00;;;1.13;;
17520;SDS011;8878;-33.370;-70.552;2022-11-18T09:26:44;1.40;;;1.17;;
17520;SDS011;8878;-33.370;-70.552;2022-11-18T09:29:14;1.00;;;1.00;;
17520;SDS011;8878;-33.370;-70.552;2022-11-18T09:31:44;0.63;;;0.63;;
17520;SDS011;8878;-33.370;-70.552;2022-11-18T09:34:14;1.60;;;1.23;;
17520;SDS011;8878;-33.370;-70.552;2022-11-18T09:36:46;1.85;;;1.10;;
17520;SDS011;8878;-33.370;-70.552;2022-11-18T09:39:15;4.80;;;2.08;;
17520;SDS011;8878;-33.370;-70.552;2022-11-18T09:41:45;1.42;;;0.93;;
17520;SDS011;8878;-33.370;-70.552;2022-11-18T09:44:23;0.85;;;0.85;;
17520;SDS011;8878;-33.370;-70.552;2022-11-18T09:47:11;1.77;;;1.38;;
17520;SDS011;8878;-33.370;-70.552;2022-11-18T09:49:49;5.53;;;1.70;;
17520;SDS011;8878;-33.370;-70.552;2022-11-18T09:52:19;1.77;;;1.63;;
17520;SDS011;8878;-33.370;-70.552;2022-11-18T09:54:52;6.47;;;2.47;;
17520;SDS011;8878;-33.370;-70.552;2022-11-18T09:57:22;3.55;;;1.45;;
17520;SDS011;8878;-33.370;-70.552;2022-11-18T09:59:56;5.10;;;1.58;;
17520;SDS011;8878;-33.370;-70.552;2022-11-18T10:02:29;2.10;;;1.45;;
17520;SDS011;8878;-33.370;-70.552;2022-11-18T10:05:15;2.63;;;1.42;;
17520;SDS011;8878;-33.370;-70.552;2022-11-18T10:07:55;2.63;;;1.57;;
17520;SDS011;8878;-33.370;-70.552;2022-11-18T10:10:34;2.60;;;1.67;;
17520;SDS011;8878;-33.370;-70.552;2022-11-18T10:13:13;2.33;;;1.70;;
17520;SDS011;8878;-33.370;-70.552;2022-11-18T10:15:54;4.10;;;1.65;;
17520;SDS011;8878;-33.370;-70.552;2022-11-18T10:18:32;1.73;;;1.48;;
17520;SDS011;8878;-33.370;-70.552;2022-11-18T10:21:13;4.78;;;2.00;;
17520;SDS011;8878;-33.370;-70.552;2022-11-18T10:23:50;8.68;;;1.58;;
17520;SDS011;8878;-33.370;-70.552;2022-11-18T10:26:33;3.83;;;1.23;;
17520;SDS011;8878;-33.370;-70.552;2022-11-18T10:29:04;2.13;;;1.60;;
17520;SDS011;8878;-33.370;-70.552;2022-11-18T10:31:36;2.70;;;1.88;;
17520;SDS011;8878;-33.370;-70.552;2022-11-18T10:34:09;4.40;;;2.53;;
17520;SDS011;8878;-33.370;-70.552;2022-11-18T10:36:42;5.68;;;2.03;;
17520;SDS011;8878;-33.370;-70.552;2022-11-18T10:39:24;3.65;;;1.92;;
17520;SDS011;8878;-33.370;-70.552;2022-11-18T10:41:56;2.38;;;1.70;;
17520;SDS011;8878;-33.370;-70.552;2022-11-18T10:44:30;4.82;;;2.10;;
17520;SDS011;8878;-33.370;-70.552;2022-11-18T10:49:53;2.50;;;1.92;;
17520;SDS011;8878;-33.370;-70.552;2022-11-18T10:52:25;4.03;;;2.40;;
17520;SDS011;8878;-33.370;-70.552;2022-11-18T10:55:18;6.10;;;1.63;;
17520;SDS011;8878;-33.370;-70.552;2022-11-18T10:57:50;3.83;;;1.77;;
17520;SDS011;8878;-33.370;-70.552;2022-11-18T11:00:42;2.45;;;1.70;;
17520;SDS011;8878;-33.370;-70.552;2022-11-18T11:09:06;3.00;;;2.08;;
17520;SDS011;8878;-33.370;-70.552;2022-11-18T11:11:37;8.98;;;2.25;;
17520;SDS011;8878;-33.370;-70.552;2022-11-18T11:14:18;4.00;;;2.42;;
17520;SDS011;8878;-33.370;-70.552;2022-11-18T11:16:55;5.25;;;2.20;;
17520;SDS011;8878;-33.370;-70.552;2022-11-18T11:19:30;2.67;;;1.95;;
17520;SDS011;8878;-33.370;-70.552;2022-11-18T11:22:09;6.13;;;2.67;;
17520;SDS011;8878;-33.370;-70.552;2022-11-18T11:24:41;2.22;;;1.73;;
17520;SDS011;8878;-33.370;-70.552;2022-11-18T11:27:22;4.22;;;2.03;;
17520;SDS011;8878;-33.370;-70.552;2022-11-18T11:30:12;6.35;;;2.10;;
17520;SDS011;8878;-33.370;-70.552;2022-11-18T11:33:01;4.30;;;2.25;;
17520;SDS011;8878;-33.370;-70.552;2022-11-18T11:35:45;9.80;;;2.67;;
17520;SDS011;8878;-33.370;-70.552;2022-11-18T11:38:23;2.50;;;1.92;;
17520;SDS011;8878;-33.370;-70.552;2022-11-18T11:41:05;4.57;;;2.50;;
17520;SDS011;8878;-33.370;-70.552;2022-11-18T11:43:45;4.85;;;2.38;;
17520;SDS011;8878;-33.370;-70.552;2022-11-18T11:46:31;4.75;;;2.05;;
17520;SDS011;8878;-33.370;-70.552;2022-11-18T11:49:14;2.13;;;1.80;;
17520;SDS011;8878;-33.370;-70.552;2022-11-18T11:51:46;7.65;;;2.80;;
17520;SDS011;8878;-33.370;-70.552;2022-11-18T11:54:28;7.22;;;2.65;;
17520;SDS011;8878;-33.370;-70.552;2022-11-18T11:57:11;3.03;;;1.42;;
17520;SDS011;8878;-33.370;-70.552;2022-11-18T11:59:50;2.65;;;1.83;;
17520;SDS011;8878;-33.370;-70.552;2022-11-18T12:02:39;14.05;;;2.28;;
17520;SDS011;8878;-33.370;-70.552;2022-11-18T12:05:21;19.20;;;2.25;;
17520;SDS011;8878;-33.370;-70.552;2022-11-18T12:07:56;4.72;;;2.25;;
17520;SDS011;8878;-33.370;-70.552;2022-11-18T12:10:29;9.18;;;2.25;;
17520;SDS011;8878;-33.370;-70.552;2022-11-18T12:13:16;16.85;;;1.98;;
17520;SDS011;8878;-33.370;-70.552;2022-11-18T12:15:59;3.70;;;1.60;;
17520;SDS011;8878;-33.370;-70.552;2022-11-18T12:18:35;3.80;;;1.85;;
17520;SDS011;8878;-33.370;-70.552;2022-11-18T12:21:09;2.75;;;1.90;;
17520;SDS011;8878;-33.370;-70.552;2022-11-18T12:24:29;4.45;;;1.70;;
17520;SDS011;8878;-33.370;-70.552;2022-11-18T12:27:04;6.20;;;1.45;;
17520;SDS011;8878;-33.370;-70.552;2022-11-18T12:29:42;3.60;;;1.83;;
17520;SDS011;8878;-33.370;-70.552;2022-11-18T12:32:28;5.60;;;1.52;;
17520;SDS011;8878;-33.370;-70.552;2022-11-18T12:35:02;4.25;;;1.67;;
17520;SDS011;8878;-33.370;-70.552;2022-11-18T12:37:43;2.75;;;1.23;;
17520;SDS011;8878;-33.370;-70.552;2022-11-18T12:40:31;1.17;;;1.10;;
17520;SDS011;8878;-33.370;-70.552;2022-11-18T12:44:08;6.25;;;1.27;;
17520;SDS011;8878;-33.370;-70.552;2022-11-18T12:52:53;8.73;;;2.78;;
17520;SDS011;8878;-33.370;-70.552;2022-11-18T12:58:20;7.35;;;2.90;;
17520;SDS011;8878;-33.370;-70.552;2022-11-18T13:00:54;6.40;;;3.13;;
17520;SDS011;8878;-33.370;-70.552;2022-11-18T13:03:34;6.30;;;2.95;;
17520;SDS011;8878;-33.370;-70.552;2022-11-18T13:06:11;5.72;;;3.33;;
17520;SDS011;8878;-33.370;-70.552;2022-11-18T13:08:49;7.13;;;3.83;;
17520;SDS011;8878;-33.370;-70.552;2022-11-18T13:11:24;14.05;;;4.00;;
17520;SDS011;8878;-33.370;-70.552;2022-11-18T13:14:15;8.60;;;4.28;;
17520;SDS011;8878;-33.370;-70.552;2022-11-18T13:20:24;10.98;;;3.88;;
17520;SDS011;8878;-33.370;-70.552;2022-11-18T13:22:56;19.40;;;3.60;;
17520;SDS011;8878;-33.370;-70.552;2022-11-18T13:25:44;8.30;;;4.13;;
17520;SDS011;8878;-33.370;-70.552;2022-11-18T13:28:22;8.80;;;4.20;;
17520;SDS011;8878;-33.370;-70.552;2022-11-18T13:30:59;11.52;;;3.40;;
17520;SDS011;8878;-33.370;-70.552;2022-11-18T13:33:33;7.35;;;3.53;;
17520;SDS011;8878;-33.370;-70.552;2022-11-18T13:36:13;8.15;;;3.25;;
17520;SDS011;8878;-33.370;-70.552;2022-11-18T13:38:53;7.70;;;3.13;;
17520;SDS011;8878;-33.370;-70.552;2022-11-18T13:41:23;9.95;;;3.35;;
17520;SDS011;8878;-33.370;-70.552;2022-11-18T13:44:09;5.97;;;2.38;;
17520;SDS011;8878;-33.370;-70.552;2022-11-18T13:46:43;6.53;;;3.92;;
17520;SDS011;8878;-33.370;-70.552;2022-11-18T13:49:16;11.73;;;3.78;;
17520;SDS011;8878;-33.370;-70.552;2022-11-18T13:51:51;8.13;;;3.40;;
17520;SDS011;8878;-33.370;-70.552;2022-11-18T13:54:22;11.02;;;3.50;;
17520;SDS011;8878;-33.370;-70.552;2022-11-18T13:56:54;13.43;;;3.33;;
17520;SDS011;8878;-33.370;-70.552;2022-11-18T13:59:23;3.80;;;1.63;;
17520;SDS011;8878;-33.370;-70.552;2022-11-18T14:01:53;7.75;;;3.60;;
17520;SDS011;8878;-33.370;-70.552;2022-11-18T14:04:27;4.63;;;2.58;;
17520;SDS011;8878;-33.370;-70.552;2022-11-18T14:07:20;6.30;;;3.03;;
17520;SDS011;8878;-33.370;-70.552;2022-11-18T14:09:53;9.60;;;2.78;;
17520;SDS011;8878;-33.370;-70.552;2022-11-18T14:12:25;8.13;;;2.72;;
17520;SDS011;8878;-33.370;-70.552;2022-11-18T14:15:18;7.97;;;2.38;;
17520;SDS011;8878;-33.370;-70.552;2022-11-18T14:17:53;4.60;;;3.22;;
17520;SDS011;8878;-33.370;-70.552;2022-11-18T14:20:24;11.63;;;3.50;;
17520;SDS011;8878;-33.370;-70.552;2022-11-18T14:22:57;6.25;;;3.08;;
17520;SDS011;8878;-33.370;-70.552;2022-11-18T14:25:28;4.95;;;2.50;;
17520;SDS011;8878;-33.370;-70.552;2022-11-18T14:28:08;5.72;;;3.55;;
17520;SDS011;8878;-33.370;-70.552;2022-11-18T14:30:40;5.22;;;2.78;;
17520;SDS011;8878;-33.370;-70.552;2022-11-18T14:33:22;5.70;;;2.88;;
17520;SDS011;8878;-33.370;-70.552;2022-11-18T14:35:54;7.57;;;3.03;;
17520;SDS011;8878;-33.370;-70.552;2022-11-18T14:38:34;5.72;;;3.30;;
17520;SDS011;8878;-33.370;-70.552;2022-11-18T14:41:09;5.90;;;3.55;;
17520;SDS011;8878;-33.370;-70.552;2022-11-18T14:43:39;5.20;;;3.05;;
17520;SDS011;8878;-33.370;-70.552;2022-11-18T14:46:13;6.38;;;3.13;;
17520;SDS011;8878;-33.370;-70.552;2022-11-18T14:48:46;4.57;;;3.13;;
17520;SDS011;8878;-33.370;-70.552;2022-11-18T14:51:15;5.85;;;2.78;;
17520;SDS011;8878;-33.370;-70.552;2022-11-18T14:53:46;8.80;;;3.03;;
17520;SDS011;8878;-33.370;-70.552;2022-11-18T14:56:16;6.32;;;2.72;;
17520;SDS011;8878;-33.370;-70.552;2022-11-18T14:58:50;7.03;;;3.53;;
17520;SDS011;8878;-33.370;-70.552;2022-11-18T15:01:20;6.78;;;2.95;;
17520;SDS011;8878;-33.370;-70.552;2022-11-18T15:03:53;7.40;;;3.22;;
17520;SDS011;8878;-33.370;-70.552;2022-11-18T15:06:22;7.05;;;2.70;;
17520;SDS011;8878;-33.370;-70.552;2022-11-18T15:08:55;6.63;;;2.95;;
17520;SDS011;8878;-33.370;-70.552;2022-11-18T15:11:24;6.68;;;2.78;;
17520;SDS011;8878;-33.370;-70.552;2022-11-18T15:13:54;8.07;;;2.95;;
17520;SDS011;8878;-33.370;-70.552;2022-11-18T15:16:23;10.38;;;3.38;;
17520;SDS011;8878;-33.370;-70.552;2022-11-18T15:18:55;10.80;;;3.20;;
17520;SDS011;8878;-33.370;-70.552;2022-11-18T15:21:25;9.77;;;3.65;;
17520;SDS011;8878;-33.370;-70.552;2022-11-18T15:23:56;9.57;;;3.40;;